sensor_id;sensor_type;location;lat;lon;timestamp;pressure;altitude;pressure_sealevel;temperature;humidity
27984;BME280;15317;50.360;8.726;2023-05-02T00:01:22;99549.75;;;11.87;98.68
27984;BME280;15317;50.360;8.726;2023-05-02T00:06:26;99546.66;;;11.82;99.52
27984;BME280;15317;50.360;8.726;2023-05-02T00:11:30;99546.00;;;11.80;100.00
27984;BME280;15317;50.360;8.726;2023-05-02T00:16:34;99543.06;;;11.81;98.41
27984;BME280;15317;50.360;8.726;2023-05-02T00:21:37;99546.50;;;11.83;99.86
27984;BME280;15317;50.360;8.726;2023-05-02T00:26:40;99548.03;;;11.86;98.66
27984;BME280;15317;50.360;8.726;2023-05-02T00:31:45;99547.34;;;11.84;97.35
27984;BME280;15317;50.360;8.726;2023-05-02T00:36:48;99551.59;;;11.78;98.31
27984;BME280;15317;50.360;8.726;2023-05-02T00:41:55;99551.59;;;11.78;97.73
27984;BME280;15317;50.360;8.726;2023-05-02T00:47:00;99556.88;;;11.80;96.40
27984;BME280;15317;50.360;8.726;2023-05-02T00:52:03;99564.84;;;11.81;95.29
27984;BME280;15317;50.360;8.726;2023-05-02T00:57:08;99559.06;;;11.76;96.19
27984;BME280;15317;50.360;8.726;2023-05-02T01:02:24;99562.25;;;11.72;96.01
27984;BME280;15317;50.360;8.726;2023-05-02T01:07:50;99565.25;;;11.61;97.73
27984;BME280;15317;50.360;8.726;2023-05-02T01:12:59;99575.47;;;11.59;98.13
27984;BME280;15317;50.360;8.726;2023-05-02T01:18:08;99578.47;;;11.39;98.27
27984;BME280;15317;50.360;8.726;2023-05-02T01:23:18;99579.09;;;11.33;99.89
27984;BME280;15317;50.360;8.726;2023-05-02T01:28:30;99587.22;;;11.25;100.00
27984;BME280;15317;50.360;8.726;2023-05-02T01:33:40;99594.31;;;11.18;100.00
27984;BME280;15317;50.360;8.726;2023-05-02T01:38:45;99595.31;;;11.17;100.00
27984;BME280;15317;50.360;8.726;2023-05-02T01:43:49;99598.63;;;11.03;100.00
27984;BME280;15317;50.360;8.726;2023-05-02T01:48:56;99601.72;;;11.08;100.00
27984;BME280;15317;50.360;8.726;2023-05-02T01:54:03;99605.16;;;10.92;100.00
27984;BME280;15317;50.360;8.726;2023-05-02T01:59:09;99608.75;;;10.93;100.00
27984;BME280;15317;50.360;8.726;2023-05-02T02:04:15;99613.75;;;10.80;100.00
27984;BME280;15317;50.360;8.726;2023-05-02T02:09:19;99611.94;;;10.62;100.00
27984;BME280;15317;50.360;8.726;2023-05-02T02:14:25;99622.00;;;10.52;100.00
27984;BME280;15317;50.360;8.726;2023-05-02T02:19:32;99632.03;;;10.34;100.00
27984;BME280;15317;50.360;8.726;2023-05-02T02:24:36;99624.00;;;10.15;100.00
27984;BME280;15317;50.360;8.726;2023-05-02T02:29:40;99633.78;;;10.08;100.00
27984;BME280;15317;50.360;8.726;2023-05-02T02:34:45;99629.25;;;9.99;100.00
27984;BME280;15317;50.360;8.726;2023-05-02T02:39:54;99637.00;;;9.94;100.00
27984;BME280;15317;50.360;8.726;2023-05-02T02:45:04;99643.31;;;9.84;100.00
27984;BME280;15317;50.360;8.726;2023-05-02T02:50:17;99657.81;;;9.75;100.00
27984;BME280;15317;50.360;8.726;2023-05-02T02:55:31;99653.75;;;9.62;100.00
27984;BME280;15317;50.360;8.726;2023-05-02T03:00:38;99660.91;;;9.53;100.00
27984;BME280;15317;50.360;8.726;2023-05-02T03:05:43;99668.94;;;9.45;100.00
27984;BME280;15317;50.360;8.726;2023-05-02T03:10:47;99674.94;;;9.39;100.00
27984;BME280;15317;50.360;8.726;2023-05-02T03:16:11;99679.97;;;9.34;100.00
27984;BME280;15317;50.360;8.726;2023-05-02T03:21:21;99697.22;;;9.33;100.00
27984;BME280;15317;50.360;8.726;2023-05-02T03:26:24;99705.22;;;9.25;100.00
27984;BME280;15317;50.360;8.726;2023-05-02T03:31:27;99713.22;;;9.17;100.00
27984;BME280;15317;50.360;8.726;2023-05-02T03:36:32;99725.19;;;9.24;100.00
27984;BME280;15317;50.360;8.726;2023-05-02T03:41:35;99717.78;;;9.16;100.00
27984;BME280;15317;50.360;8.726;2023-05-02T03:46:38;99738.59;;;9.25;100.00
27984;BME280;15317;50.360;8.726;2023-05-02T03:51:42;99747.59;;;9.26;100.00
27984;BME280;15317;50.360;8.726;2023-05-02T03:56:45;99738.34;;;9.19;100.00
27984;BME280;15317;50.360;8.726;2023-05-02T04:01:49;99742.19;;;9.16;100.00
27984;BME280;15317;50.360;8.726;2023-05-02T04:06:53;99747.31;;;9.09;100.00
27984;BME280;15317;50.360;8.726;2023-05-02T04:11:56;99746.03;;;9.14;100.00
27984;BME280;15317;50.360;8.726;2023-05-02T04:17:00;99750.34;;;9.06;100.00
27984;BME280;15317;50.360;8.726;2023-05-02T04:22:04;99755.16;;;9.03;100.00
27984;BME280;15317;50.360;8.726;2023-05-02T04:27:07;99755.19;;;9.13;100.00
27984;BME280;15317;50.360;8.726;2023-05-02T04:32:11;99759.88;;;9.10;100.00
27984;BME280;15317;50.360;8.726;2023-05-02T04:37:15;99775.41;;;9.08;100.00
27984;BME280;15317;50.360;8.726;2023-05-02T04:42:18;99790.41;;;9.13;100.00
27984;BME280;15317;50.360;8.726;2023-05-02T04:47:22;99791.94;;;9.25;100.00
27984;BME280;15317;50.360;8.726;2023-05-02T04:52:26;99803.63;;;9.35;100.00
27984;BME280;15317;50.360;8.726;2023-05-02T04:57:29;99816.19;;;9.36;100.00
27984;BME280;15317;50.360;8.726;2023-05-02T05:02:32;99821.59;;;9.36;100.00
27984;BME280;15317;50.360;8.726;2023-05-02T05:07:37;99834.72;;;9.50;100.00
27984;BME280;15317;50.360;8.726;2023-05-02T05:12:40;99827.00;;;9.65;100.00
27984;BME280;15317;50.360;8.726;2023-05-02T05:17:43;99855.19;;;9.91;100.00
27984;BME280;15317;50.360;8.726;2023-05-02T05:22:47;99853.00;;;10.14;100.00
27984;BME280;15317;50.360;8.726;2023-05-02T05:27:51;99855.63;;;10.43;100.00
27984;BME280;15317;50.360;8.726;2023-05-02T05:32:54;99862.25;;;10.58;100.00
27984;BME280;15317;50.360;8.726;2023-05-02T05:37:58;99853.47;;;10.74;100.00
27984;BME280;15317;50.360;8.726;2023-05-02T05:43:01;99860.47;;;10.94;100.00
27984;BME280;15317;50.360;8.726;2023-05-02T05:48:05;99868.25;;;11.06;100.00
27984;BME280;15317;50.360;8.726;2023-05-02T05:53:10;99879.03;;;11.26;100.00
27984;BME280;15317;50.360;8.726;2023-05-02T05:58:13;99868.97;;;11.44;98.23
27984;BME280;15317;50.360;8.726;2023-05-02T06:03:16;99877.00;;;11.45;97.10
27984;BME280;15317;50.360;8.726;2023-05-02T06:08:21;99882.03;;;11.40;97.01
27984;BME280;15317;50.360;8.726;2023-05-02T06:13:24;99885.53;;;11.51;95.80
27984;BME280;15317;50.360;8.726;2023-05-02T06:18:27;99896.56;;;11.67;98.04
27984;BME280;15317;50.360;8.726;2023-05-02T06:23:32;99895.13;;;11.98;97.24
27984;BME280;15317;50.360;8.726;2023-05-02T06:28:35;99901.91;;;12.46;95.41
27984;BME280;15317;50.360;8.726;2023-05-02T06:33:38;99912.63;;;12.73;85.20
27984;BME280;15317;50.360;8.726;2023-05-02T06:38:43;99931.31;;;13.10;89.35
27984;BME280;15317;50.360;8.726;2023-05-02T06:43:46;99931.56;;;13.17;87.59
27984;BME280;15317;50.360;8.726;2023-05-02T06:48:49;99928.84;;;13.25;86.76
27984;BME280;15317;50.360;8.726;2023-05-02T06:53:54;99945.47;;;13.05;85.88
27984;BME280;15317;50.360;8.726;2023-05-02T06:58:57;99961.03;;;12.79;86.52
27984;BME280;15317;50.360;8.726;2023-05-02T07:04:00;99964.19;;;12.66;85.32
27984;BME280;15317;50.360;8.726;2023-05-02T07:09:06;99966.28;;;12.47;84.46
27984;BME280;15317;50.360;8.726;2023-05-02T07:14:09;99975.78;;;12.43;88.16
27984;BME280;15317;50.360;8.726;2023-05-02T07:19:12;99983.81;;;12.44;86.34
27984;BME280;15317;50.360;8.726;2023-05-02T07:24:16;99984.34;;;12.48;85.70
27984;BME280;15317;50.360;8.726;2023-05-02T07:29:19;99993.53;;;12.47;85.53
27984;BME280;15317;50.360;8.726;2023-05-02T07:34:22;100004.38;;;12.39;88.46
27984;BME280;15317;50.360;8.726;2023-05-02T07:39:27;100003.13;;;12.33;87.17
27984;BME280;15317;50.360;8.726;2023-05-02T07:44:31;100012.38;;;12.40;87.96
27984;BME280;15317;50.360;8.726;2023-05-02T07:49:35;100002.38;;;12.49;90.80
27984;BME280;15317;50.360;8.726;2023-05-02T07:54:40;100007.22;;;12.55;84.75
27984;BME280;15317;50.360;8.726;2023-05-02T07:59:43;100014.41;;;12.64;82.98
27984;BME280;15317;50.360;8.726;2023-05-02T08:04:46;100021.69;;;12.81;83.37
27984;BME280;15317;50.360;8.726;2023-05-02T08:09:51;100017.44;;;13.13;79.23
27984;BME280;15317;50.360;8.726;2023-05-02T08:14:54;100033.63;;;13.48;76.63
27984;BME280;15317;50.360;8.726;2023-05-02T08:19:57;100035.75;;;13.78;75.63
27984;BME280;15317;50.360;8.726;2023-05-02T08:25:05;100039.94;;;14.23;76.98
27984;BME280;15317;50.360;8.726;2023-05-02T08:30:08;100043.34;;;14.25;72.98
27984;BME280;15317;50.360;8.726;2023-05-02T08:35:12;100047.66;;;14.60;74.61
27984;BME280;15317;50.360;8.726;2023-05-02T08:40:16;100049.09;;;15.11;70.95
27984;BME280;15317;50.360;8.726;2023-05-02T08:45:41;100052.38;;;15.46;69.09
27984;BME280;15317;50.360;8.726;2023-05-02T08:50:44;100050.97;;;15.66;67.99
27984;BME280;15317;50.360;8.726;2023-05-02T08:55:50;100065.50;;;15.19;70.09
27984;BME280;15317;50.360;8.726;2023-05-02T09:00:54;100076.00;;;14.83;70.95
27984;BME280;15317;50.360;8.726;2023-05-02T09:06:05;100077.53;;;14.78;73.48
27984;BME280;15317;50.360;8.726;2023-05-02T09:11:11;100083.34;;;14.75;72.32
27984;BME280;15317;50.360;8.726;2023-05-02T09:16:18;100092.06;;;14.78;72.58
27984;BME280;15317;50.360;8.726;2023-05-02T09:21:25;100084.03;;;14.69;77.11
27984;BME280;15317;50.360;8.726;2023-05-02T09:26:30;100085.81;;;15.80;71.93
27984;BME280;15317;50.360;8.726;2023-05-02T09:31:34;100090.69;;;16.24;67.02
27984;BME280;15317;50.360;8.726;2023-05-02T09:36:57;100089.78;;;16.54;65.51
27984;BME280;15317;50.360;8.726;2023-05-02T09:42:01;100097.69;;;16.94;61.30
27984;BME280;15317;50.360;8.726;2023-05-02T09:47:06;100110.91;;;18.80;59.32
27984;BME280;15317;50.360;8.726;2023-05-02T09:52:10;100115.53;;;20.39;53.12
27984;BME280;15317;50.360;8.726;2023-05-02T09:57:15;100101.59;;;20.80;47.67
27984;BME280;15317;50.360;8.726;2023-05-02T10:02:19;100110.09;;;21.24;48.22
27984;BME280;15317;50.360;8.726;2023-05-02T10:07:22;100109.19;;;20.58;49.47
27984;BME280;15317;50.360;8.726;2023-05-02T10:12:29;100104.09;;;20.75;46.16
27984;BME280;15317;50.360;8.726;2023-05-02T10:17:38;100104.56;;;20.04;46.12
27984;BME280;15317;50.360;8.726;2023-05-02T10:22:44;100110.84;;;19.51;51.10
27984;BME280;15317;50.360;8.726;2023-05-02T10:27:50;100096.31;;;20.18;46.22
27984;BME280;15317;50.360;8.726;2023-05-02T10:32:54;100096.03;;;20.67;44.82
27984;BME280;15317;50.360;8.726;2023-05-02T10:37:59;100091.03;;;20.23;46.83
27984;BME280;15317;50.360;8.726;2023-05-02T10:43:05;100090.09;;;21.03;46.74
27984;BME280;15317;50.360;8.726;2023-05-02T10:48:12;100085.69;;;19.32;48.89
27984;BME280;15317;50.360;8.726;2023-05-02T10:53:25;100085.66;;;20.01;47.52
27984;BME280;15317;50.360;8.726;2023-05-02T10:58:30;100081.19;;;21.14;51.70
27984;BME280;15317;50.360;8.726;2023-05-02T11:03:52;100089.25;;;21.35;44.76
27984;BME280;15317;50.360;8.726;2023-05-02T11:09:33;100093.88;;;20.49;46.06
27984;BME280;15317;50.360;8.726;2023-05-02T11:14:46;100081.50;;;18.60;52.10
27984;BME280;15317;50.360;8.726;2023-05-02T11:20:23;100083.88;;;18.63;52.16
27984;BME280;15317;50.360;8.726;2023-05-02T11:25:28;100078.69;;;19.02;48.86
27984;BME280;15317;50.360;8.726;2023-05-02T11:30:37;100074.53;;;18.64;52.29
27984;BME280;15317;50.360;8.726;2023-05-02T11:35:43;100083.72;;;18.71;51.39
27984;BME280;15317;50.360;8.726;2023-05-02T11:40:54;100068.47;;;18.11;50.51
27984;BME280;15317;50.360;8.726;2023-05-02T11:46:00;100072.81;;;18.20;50.40
27984;BME280;15317;50.360;8.726;2023-05-02T11:51:04;100074.09;;;19.09;49.75
27984;BME280;15317;50.360;8.726;2023-05-02T11:56:08;100091.09;;;19.88;49.42
27984;BME280;15317;50.360;8.726;2023-05-02T12:01:13;100099.06;;;19.36;45.36
27984;BME280;15317;50.360;8.726;2023-05-02T12:06:17;100091.53;;;18.31;49.21
27984;BME280;15317;50.360;8.726;2023-05-02T12:11:22;100105.97;;;17.97;49.55
27984;BME280;15317;50.360;8.726;2023-05-02T12:16:26;100104.28;;;17.52;51.23
27984;BME280;15317;50.360;8.726;2023-05-02T12:21:30;100107.13;;;17.59;51.09
27984;BME280;15317;50.360;8.726;2023-05-02T12:26:34;100109.50;;;17.76;49.52
27984;BME280;15317;50.360;8.726;2023-05-02T12:31:49;100109.66;;;19.66;51.80
27984;BME280;15317;50.360;8.726;2023-05-02T12:36:53;100114.09;;;20.96;47.06
27984;BME280;15317;50.360;8.726;2023-05-02T12:41:56;100119.22;;;20.85;45.19
27984;BME280;15317;50.360;8.726;2023-05-02T12:47:00;100131.03;;;19.30;47.47
27984;BME280;15317;50.360;8.726;2023-05-02T12:52:03;100129.13;;;18.24;53.55
27984;BME280;15317;50.360;8.726;2023-05-02T12:57:06;100126.38;;;17.73;52.69
27984;BME280;15317;50.360;8.726;2023-05-02T13:02:11;100130.16;;;17.72;55.61
27984;BME280;15317;50.360;8.726;2023-05-02T13:07:14;100133.16;;;17.48;55.47
27984;BME280;15317;50.360;8.726;2023-05-02T13:12:17;100135.56;;;17.14;54.59
27984;BME280;15317;50.360;8.726;2023-05-02T13:17:22;100141.59;;;16.94;55.18
27984;BME280;15317;50.360;8.726;2023-05-02T13:22:25;100141.97;;;16.91;56.13
27984;BME280;15317;50.360;8.726;2023-05-02T13:27:28;100149.50;;;17.12;55.06
27984;BME280;15317;50.360;8.726;2023-05-02T13:32:32;100144.22;;;17.40;53.76
27984;BME280;15317;50.360;8.726;2023-05-02T13:37:35;100153.59;;;18.19;51.50
27984;BME280;15317;50.360;8.726;2023-05-02T13:42:39;100152.97;;;18.38;52.84
27984;BME280;15317;50.360;8.726;2023-05-02T13:47:43;100152.81;;;18.25;51.93
27984;BME280;15317;50.360;8.726;2023-05-02T13:52:46;100151.47;;;17.70;49.72
27984;BME280;15317;50.360;8.726;2023-05-02T13:57:50;100160.75;;;17.99;51.25
27984;BME280;15317;50.360;8.726;2023-05-02T14:02:54;100163.22;;;18.30;50.36
27984;BME280;15317;50.360;8.726;2023-05-02T14:07:58;100163.94;;;18.17;47.35
27984;BME280;15317;50.360;8.726;2023-05-02T14:13:01;100163.44;;;19.56;45.35
27984;BME280;15317;50.360;8.726;2023-05-02T14:18:05;100161.25;;;20.27;45.52
27984;BME280;15317;50.360;8.726;2023-05-02T14:23:08;100177.00;;;20.94;42.42
27984;BME280;15317;50.360;8.726;2023-05-02T14:28:11;100178.41;;;20.63;42.98
27984;BME280;15317;50.360;8.726;2023-05-02T14:33:16;100180.34;;;19.81;44.19
27984;BME280;15317;50.360;8.726;2023-05-02T14:38:19;100177.34;;;20.10;44.16
27984;BME280;15317;50.360;8.726;2023-05-02T14:43:22;100192.44;;;20.68;44.57
27984;BME280;15317;50.360;8.726;2023-05-02T14:48:27;100190.25;;;20.44;43.72
27984;BME280;15317;50.360;8.726;2023-05-02T14:53:30;100189.69;;;19.52;45.85
27984;BME280;15317;50.360;8.726;2023-05-02T14:58:33;100183.44;;;18.94;45.73
27984;BME280;15317;50.360;8.726;2023-05-02T15:03:37;100200.25;;;18.63;47.07
27984;BME280;15317;50.360;8.726;2023-05-02T15:09:00;100202.84;;;17.99;49.82
27984;BME280;15317;50.360;8.726;2023-05-02T15:14:04;100207.69;;;17.45;50.87
27984;BME280;15317;50.360;8.726;2023-05-02T15:19:08;100207.31;;;16.88;52.40
27984;BME280;15317;50.360;8.726;2023-05-02T15:53:55;100240.31;;;17.03;51.80
27984;BME280;15317;50.360;8.726;2023-05-02T15:58:58;100245.00;;;16.94;51.61
27984;BME280;15317;50.360;8.726;2023-05-02T16:04:01;100251.94;;;16.51;52.97
27984;BME280;15317;50.360;8.726;2023-05-02T16:09:08;100257.09;;;16.07;54.81
27984;BME280;15317;50.360;8.726;2023-05-02T16:14:13;100252.91;;;15.64;57.07
27984;BME280;15317;50.360;8.726;2023-05-02T16:19:16;100256.00;;;15.45;55.70
27984;BME280;15317;50.360;8.726;2023-05-02T16:24:21;100251.91;;;15.40;55.35
27984;BME280;15317;50.360;8.726;2023-05-02T16:29:25;100256.84;;;15.45;53.63
27984;BME280;15317;50.360;8.726;2023-05-02T16:34:30;100240.59;;;15.03;55.32
27984;BME280;15317;50.360;8.726;2023-05-02T16:39:35;100248.34;;;15.08;55.82
27984;BME280;15317;50.360;8.726;2023-05-02T16:44:38;100243.84;;;14.82;54.61
27984;BME280;15317;50.360;8.726;2023-05-02T16:49:41;100252.19;;;14.65;55.24
27984;BME280;15317;50.360;8.726;2023-05-02T16:54:46;100245.16;;;14.62;55.89
27984;BME280;15317;50.360;8.726;2023-05-02T16:59:50;100265.66;;;14.50;54.78
27984;BME280;15317;50.360;8.726;2023-05-02T17:04:54;100274.16;;;14.39;54.98
27984;BME280;15317;50.360;8.726;2023-05-02T17:09:58;100273.81;;;14.42;54.21
27984;BME280;15317;50.360;8.726;2023-05-02T17:15:01;100277.75;;;14.39;53.15
27984;BME280;15317;50.360;8.726;2023-05-02T17:20:06;100281.75;;;14.27;56.26
27984;BME280;15317;50.360;8.726;2023-05-02T17:25:10;100295.44;;;14.35;59.51
27984;BME280;15317;50.360;8.726;2023-05-02T17:30:14;100288.69;;;14.13;59.47
27984;BME280;15317;50.360;8.726;2023-05-02T17:35:17;100289.22;;;14.17;59.19
27984;BME280;15317;50.360;8.726;2023-05-02T17:40:22;100289.06;;;13.84;58.92
27984;BME280;15317;50.360;8.726;2023-05-02T17:45:26;100298.84;;;13.69;59.31
27984;BME280;15317;50.360;8.726;2023-05-02T17:50:35;100300.19;;;13.22;59.49
27984;BME280;15317;50.360;8.726;2023-05-02T17:55:39;100303.88;;;12.85;60.51
27984;BME280;15317;50.360;8.726;2023-05-02T18:00:42;100311.47;;;12.64;62.34
27984;BME280;15317;50.360;8.726;2023-05-02T18:05:46;100319.66;;;12.37;61.60
27984;BME280;15317;50.360;8.726;2023-05-02T18:10:50;100314.72;;;12.22;61.14
27984;BME280;15317;50.360;8.726;2023-05-02T18:15:54;100331.88;;;12.05;61.42
27984;BME280;15317;50.360;8.726;2023-05-02T18:20:57;100337.97;;;11.80;61.28
27984;BME280;15317;50.360;8.726;2023-05-02T18:26:03;100333.94;;;11.65;61.23
27984;BME280;15317;50.360;8.726;2023-05-02T18:31:14;100351.03;;;11.38;63.91
27984;BME280;15317;50.360;8.726;2023-05-02T18:36:23;100366.03;;;11.13;63.36
27984;BME280;15317;50.360;8.726;2023-05-02T18:41:27;100365.16;;;10.93;64.22
27984;BME280;15317;50.360;8.726;2023-05-02T18:46:30;100380.31;;;10.77;65.78
27984;BME280;15317;50.360;8.726;2023-05-02T18:51:34;100380.94;;;10.50;64.95
27984;BME280;15317;50.360;8.726;2023-05-02T18:56:39;100389.59;;;10.34;65.04
27984;BME280;15317;50.360;8.726;2023-05-02T19:01:44;100391.69;;;10.21;66.14
27984;BME280;15317;50.360;8.726;2023-05-02T19:06:48;100401.69;;;10.00;66.23
27984;BME280;15317;50.360;8.726;2023-05-02T19:11:52;100408.44;;;9.84;68.18
27984;BME280;15317;50.360;8.726;2023-05-02T19:16:56;100412.44;;;9.69;70.49
27984;BME280;15317;50.360;8.726;2023-05-02T19:21:59;100418.47;;;9.52;69.48
27984;BME280;15317;50.360;8.726;2023-05-02T19:27:05;100426.91;;;9.38;71.47
27984;BME280;15317;50.360;8.726;2023-05-02T19:32:08;100441.50;;;9.26;70.59
27984;BME280;15317;50.360;8.726;2023-05-02T19:37:12;100444.63;;;9.10;73.20
27984;BME280;15317;50.360;8.726;2023-05-02T19:42:16;100448.50;;;8.85;76.44
27984;BME280;15317;50.360;8.726;2023-05-02T19:47:19;100446.53;;;8.76;75.74
27984;BME280;15317;50.360;8.726;2023-05-02T19:52:23;100446.81;;;8.73;75.18
27984;BME280;15317;50.360;8.726;2023-05-02T19:57:27;100460.81;;;8.67;75.75
27984;BME280;15317;50.360;8.726;2023-05-02T20:02:31;100462.31;;;8.60;76.89
27984;BME280;15317;50.360;8.726;2023-05-02T20:07:34;100460.09;;;8.43;77.04
27984;BME280;15317;50.360;8.726;2023-05-02T20:12:39;100464.66;;;8.42;79.66
27984;BME280;15317;50.360;8.726;2023-05-02T20:17:45;100469.69;;;8.36;78.41
27984;BME280;15317;50.360;8.726;2023-05-02T20:22:49;100475.34;;;8.32;79.03
27984;BME280;15317;50.360;8.726;2023-05-02T20:27:53;100477.63;;;8.26;78.27
27984;BME280;15317;50.360;8.726;2023-05-02T20:32:56;100493.00;;;8.14;78.92
27984;BME280;15317;50.360;8.726;2023-05-02T20:38:15;100498.28;;;8.05;80.89
27984;BME280;15317;50.360;8.726;2023-05-02T20:43:19;100510.19;;;7.91;80.30
27984;BME280;15317;50.360;8.726;2023-05-02T20:48:24;100503.75;;;7.81;81.84
27984;BME280;15317;50.360;8.726;2023-05-02T20:53:27;100502.72;;;7.71;80.37
27984;BME280;15317;50.360;8.726;2023-05-02T20:58:32;100503.31;;;7.63;81.75
27984;BME280;15317;50.360;8.726;2023-05-02T21:03:35;100516.75;;;7.52;83.26
27984;BME280;15317;50.360;8.726;2023-05-02T21:08:41;100517.13;;;7.47;80.79
27984;BME280;15317;50.360;8.726;2023-05-02T21:13:46;100525.22;;;7.47;80.83
27984;BME280;15317;50.360;8.726;2023-05-02T21:18:49;100524.47;;;7.45;81.71
27984;BME280;15317;50.360;8.726;2023-05-02T21:23:52;100505.53;;;7.45;79.69
27984;BME280;15317;50.360;8.726;2023-05-02T21:28:56;100514.22;;;7.38;80.66
27984;BME280;15317;50.360;8.726;2023-05-02T21:33:59;100524.41;;;7.34;81.54
27984;BME280;15317;50.360;8.726;2023-05-02T21:39:02;100530.50;;;7.25;82.78
27984;BME280;15317;50.360;8.726;2023-05-02T21:44:09;100530.59;;;7.24;81.88
27984;BME280;15317;50.360;8.726;2023-05-02T21:49:12;100529.97;;;7.20;79.89
27984;BME280;15317;50.360;8.726;2023-05-02T21:54:15;100527.63;;;7.16;80.76
27984;BME280;15317;50.360;8.726;2023-05-02T21:59:19;100524.94;;;7.03;82.84
27984;BME280;15317;50.360;8.726;2023-05-02T22:04:23;100527.38;;;6.95;82.63
27984;BME280;15317;50.360;8.726;2023-05-02T22:09:26;100519.06;;;6.85;81.85
27984;BME280;15317;50.360;8.726;2023-05-02T22:14:32;100523.81;;;6.82;82.17
27984;BME280;15317;50.360;8.726;2023-05-02T22:19:47;100524.25;;;6.75;82.83
27984;BME280;15317;50.360;8.726;2023-05-02T22:24:50;100527.81;;;6.63;84.18
27984;BME280;15317;50.360;8.726;2023-05-02T22:29:55;100532.91;;;6.55;85.20
27984;BME280;15317;50.360;8.726;2023-05-02T22:34:58;100532.59;;;6.47;83.28
27984;BME280;15317;50.360;8.726;2023-05-02T22:40:02;100541.69;;;6.46;84.88
27984;BME280;15317;50.360;8.726;2023-05-02T22:45:08;100543.50;;;6.33;84.41
27984;BME280;15317;50.360;8.726;2023-05-02T22:50:11;100551.91;;;6.28;85.08
27984;BME280;15317;50.360;8.726;2023-05-02T22:55:15;100545.09;;;6.23;84.92
27984;BME280;15317;50.360;8.726;2023-05-02T23:00:19;100554.31;;;6.33;82.97
27984;BME280;15317;50.360;8.726;2023-05-02T23:05:24;100554.94;;;6.24;82.10
27984;BME280;15317;50.360;8.726;2023-05-02T23:10:27;100557.09;;;6.19;83.39
27984;BME280;15317;50.360;8.726;2023-05-02T23:15:31;100568.72;;;6.07;85.03
27984;BME280;15317;50.360;8.726;2023-05-02T23:20:35;100557.38;;;6.02;84.32
27984;BME280;15317;50.360;8.726;2023-05-02T23:25:38;100555.97;;;5.96;85.29
27984;BME280;15317;50.360;8.726;2023-05-02T23:30:42;100547.22;;;5.92;84.62
27984;BME280;15317;50.360;8.726;2023-05-02T23:35:46;100554.75;;;5.87;84.41
27984;BME280;15317;50.360;8.726;2023-05-02T23:40:50;100560.06;;;5.75;87.05
27984;BME280;15317;50.360;8.726;2023-05-02T23:45:54;100573.00;;;5.70;87.73
27984;BME280;15317;50.360;8.726;2023-05-02T23:50:57;100560.91;;;5.63;87.77
27984;BME280;15317;50.360;8.726;2023-05-02T23:56:01;100560.03;;;5.62;87.55
